Time;durP1;ratioP1;P1;durP2;ratioP2;P2;SDS_P1;SDS_P2;PMS_P1;PMS_P2;Temp;Humidity;BMP_temperature;BMP_pressure;BME280_temperature;BME280_humidity;BME280_pressure;Samples;Min_cycle;Max_cycle;Signal;HPM_P1;HPM_P2
2022/01/23 00:01:13;;;;;;;24.13;21.80;;;;;;;;;;5122572;27;24421;-59
2022/01/23 00:03:44;;;;;;;21.35;19.35;;;;;;;;;;5126809;27;24394;-60
2022/01/23 00:06:10;;;;;;;20.85;18.85;;;;;;;;;;5126035;28;24843;-62
2022/01/23 00:08:35;;;;;;;19.83;17.92;;;;;;;;;;5126485;28;24445;-61
2022/01/23 00:11:00;;;;;;;20.10;18.10;;;;;;;;;;5126009;28;24397;-61
2022/01/23 00:13:32;;;;;;;20.73;18.73;;;;;;;;;;5126042;28;24981;-61
2022/01/23 00:18:41;;;;;;;19.20;17.30;;;;;;;;;;5130897;27;24412;-60
2022/01/23 00:21:06;;;;;;;20.27;18.30;;;;;;;;;;5130822;27;24408;-61
2022/01/23 00:30:17;;;;;;;20.93;18.77;;;;;;;;;;5129296;27;25005;-60
2022/01/23 00:31:44;;;;;;;19.10;17.20;;;;;;;;;;5127897;27;24794;-61
2022/01/23 00:34:09;;;;;;;19.60;17.60;;;;;;;;;;5129647;27;24402;-61
2022/01/23 00:36:35;;;;;;;18.30;16.50;;;;;;;;;;5130497;27;25027;-61
2022/01/23 00:39:00;;;;;;;17.87;16.07;;;;;;;;;;5128220;27;24966;-60
2022/01/23 00:41:25;;;;;;;17.90;16.20;;;;;;;;;;5130424;27;24417;-61
2022/01/23 00:43:53;;;;;;;16.67;15.07;;;;;;;;;;5129639;27;25225;-61
2022/01/23 00:49:02;;;;;;;18.63;16.67;;;;;;;;;;5130659;27;24701;-60
2022/01/23 00:51:35;;;;;;;17.35;15.65;;;;;;;;;;5129732;27;24413;-60
2022/01/23 00:54:01;;;;;;;17.13;15.35;;;;;;;;;;5129916;27;24573;-60
2022/01/23 00:56:27;;;;;;;16.85;15.15;;;;;;;;;;5130355;27;24409;-60
2022/01/23 00:58:52;;;;;;;16.80;15.10;;;;;;;;;;5129947;27;25328;-61
2022/01/23 01:01:18;;;;;;;18.43;16.57;;;;;;;;;;5129839;27;24445;-61
2022/01/23 01:03:43;;;;;;;17.60;15.80;;;;;;;;;;5130648;27;24397;-60
2022/01/23 01:06:09;;;;;;;16.98;15.27;;;;;;;;;;5129538;27;24436;-60
2022/01/23 01:08:34;;;;;;;16.00;14.40;;;;;;;;;;5127040;27;25111;-60
2022/01/23 01:11:44;;;;;;;16.67;14.87;;;;;;;;;;5120708;27;24416;-60
2022/01/23 01:32:50;;;;;;;16.65;14.85;;;;;;;;;;5128865;27;24404;-60
2022/01/23 01:37:53;;;;;;;15.70;14.05;;;;;;;;;;5126564;27;24448;-59
2022/01/23 01:40:19;;;;;;;13.20;11.80;;;;;;;;;;5129322;27;24458;-59
2022/01/23 01:42:44;;;;;;;13.23;11.82;;;;;;;;;;5128122;27;24922;-59
2022/01/23 01:45:10;;;;;;;12.00;10.70;;;;;;;;;;5129050;27;24440;-59
2022/01/23 01:47:35;;;;;;;9.82;8.93;;;;;;;;;;5122403;27;24508;-59
2022/01/23 01:50:00;;;;;;;10.55;9.55;;;;;;;;;;5115112;27;24418;-60
2022/01/23 01:52:25;;;;;;;10.07;9.07;;;;;;;;;;5128580;27;24415;-61
2022/01/23 01:54:59;;;;;;;11.20;9.87;;;;;;;;;;5128187;27;25028;-61
2022/01/23 01:57:29;;;;;;;11.50;10.35;;;;;;;;;;5128006;27;24413;-59
2022/01/23 02:00:25;;;;;;;9.65;8.75;;;;;;;;;;5128745;27;24573;-59
2022/01/23 02:10:49;;;;;;;9.80;8.80;;;;;;;;;;5128922;27;24762;-60
2022/01/23 02:13:18;;;;;;;10.60;9.50;;;;;;;;;;5128454;27;24784;-60
2022/01/23 02:51:30;;;;;;;9.82;8.82;;;;;;;;;;5128119;27;24756;-60
2022/01/23 02:56:44;;;;;;;9.23;8.32;;;;;;;;;;5127501;27;24442;-61
2022/01/23 02:59:31;;;;;;;10.52;9.48;;;;;;;;;;5128219;27;24421;-60
2022/01/23 03:02:10;;;;;;;10.18;9.18;;;;;;;;;;5126706;27;24424;-61
2022/01/23 03:04:39;;;;;;;9.60;8.70;;;;;;;;;;5126997;27;24587;-60
2022/01/23 03:10:02;;;;;;;9.20;8.30;;;;;;;;;;5117177;27;24385;-59
2022/01/23 03:13:26;;;;;;;10.18;9.18;;;;;;;;;;5123749;27;24412;-59
2022/01/23 03:28:49;;;;;;;9.85;8.85;;;;;;;;;;5128003;27;24449;-61
2022/01/23 03:31:27;;;;;;;9.90;8.60;;;;;;;;;;5127051;27;24416;-60
2022/01/23 03:33:53;;;;;;;10.32;8.93;;;;;;;;;;5127108;27;24454;-60
2022/01/23 03:36:20;;;;;;;9.80;8.80;;;;;;;;;;5126022;27;24817;-60
2022/01/23 03:38:46;;;;;;;11.43;9.70;;;;;;;;;;5124629;27;24568;-59
2022/01/23 03:41:11;;;;;;;10.10;9.00;;;;;;;;;;5123051;27;25037;-60
2022/01/23 03:43:38;;;;;;;9.30;8.30;;;;;;;;;;5126866;27;24540;-59
2022/01/23 03:51:20;;;;;;;9.80;8.73;;;;;;;;;;5121412;27;24535;-61
2022/01/23 03:53:45;;;;;;;9.65;8.65;;;;;;;;;;5125145;27;24578;-61
2022/01/23 03:56:10;;;;;;;8.77;7.97;;;;;;;;;;5123525;27;24428;-61
2022/01/23 03:58:35;;;;;;;9.63;8.73;;;;;;;;;;5126167;27;24421;-61
2022/01/23 04:01:01;;;;;;;9.77;8.77;;;;;;;;;;5126652;27;24420;-61
2022/01/23 04:03:26;;;;;;;9.90;8.98;;;;;;;;;;5126300;27;24466;-61
2022/01/23 04:05:51;;;;;;;10.93;9.60;;;;;;;;;;5126127;28;24433;-61
2022/01/23 04:08:17;;;;;;;11.60;10.37;;;;;;;;;;5125966;28;24409;-61
2022/01/23 04:10:43;;;;;;;11.80;9.45;;;;;;;;;;5125536;28;24537;-61
2022/01/23 04:13:23;;;;;;;11.82;10.63;;;;;;;;;;5125876;28;25234;-62
2022/01/23 04:16:03;;;;;;;10.52;9.40;;;;;;;;;;5126787;28;24802;-61
2022/01/23 04:32:44;;;;;;;9.55;8.55;;;;;;;;;;5123147;28;24407;-61
2022/01/23 04:35:39;;;;;;;11.52;10.00;;;;;;;;;;5125019;28;24473;-61
2022/01/23 04:59:33;;;;;;;9.90;8.85;;;;;;;;;;5067476;28;25019;-60
2022/01/23 04:59:34;;;;;;;9.07;7.90;;;;;;;;;;5115110;28;21376;-61
2022/01/23 05:00:08;;;;;;;8.48;7.57;;;;;;;;;;5123739;28;24404;-61
2022/01/23 05:05:21;;;;;;;7.80;6.97;;;;;;;;;;5116943;27;24538;-61
2022/01/23 05:07:47;;;;;;;8.00;7.20;;;;;;;;;;5127072;27;24480;-61
2022/01/23 05:10:12;;;;;;;8.20;7.00;;;;;;;;;;5130250;27;24457;-60
2022/01/23 05:12:37;;;;;;;7.72;6.93;;;;;;;;;;5129936;27;24413;-60
2022/01/23 05:15:03;;;;;;;7.17;6.47;;;;;;;;;;5129475;27;24402;-61
2022/01/23 05:17:28;;;;;;;7.30;6.60;;;;;;;;;;5129583;27;24998;-60
2022/01/23 05:19:53;;;;;;;7.47;6.73;;;;;;;;;;5126877;27;24421;-60
2022/01/23 05:22:25;;;;;;;8.57;7.57;;;;;;;;;;5129763;27;24974;-60
2022/01/23 05:24:54;;;;;;;8.60;7.63;;;;;;;;;;5128897;27;24528;-60
2022/01/23 05:27:23;;;;;;;9.75;8.30;;;;;;;;;;5129415;27;24437;-60
2022/01/23 05:29:49;;;;;;;8.77;7.87;;;;;;;;;;5129097;27;24428;-59
2022/01/23 05:32:14;;;;;;;9.00;8.10;;;;;;;;;;5129516;27;24942;-59
2022/01/23 05:34:40;;;;;;;8.60;7.70;;;;;;;;;;5129139;27;24413;-69
2022/01/23 05:37:06;;;;;;;10.50;8.40;;;;;;;;;;5129089;27;25049;-67
2022/01/23 05:39:33;;;;;;;9.17;8.17;;;;;;;;;;5126780;27;24444;-74
2022/01/23 05:42:05;;;;;;;8.43;7.50;;;;;;;;;;5129462;27;24786;-70
2022/01/23 05:44:30;;;;;;;8.60;7.67;;;;;;;;;;5128352;27;24424;-60
2022/01/23 05:46:55;;;;;;;8.70;7.70;;;;;;;;;;5128484;27;24795;-59
2022/01/23 05:49:20;;;;;;;9.77;8.07;;;;;;;;;;5118536;27;24504;-59
2022/01/23 05:51:51;;;;;;;7.90;7.10;;;;;;;;;;5124809;27;24425;-62
2022/01/23 05:54:16;;;;;;;7.90;7.10;;;;;;;;;;5128534;27;24450;-60
2022/01/23 05:56:41;;;;;;;9.40;8.35;;;;;;;;;;5128923;27;24409;-60
2022/01/23 05:59:07;;;;;;;8.53;7.67;;;;;;;;;;5125300;27;24425;-61
2022/01/23 06:01:32;;;;;;;9.70;8.00;;;;;;;;;;5127521;27;24450;-60
2022/01/23 06:03:57;;;;;;;8.00;6.90;;;;;;;;;;5128852;27;24434;-60
2022/01/23 06:06:22;;;;;;;7.93;7.00;;;;;;;;;;5126584;27;24425;-60
2022/01/23 06:08:47;;;;;;;7.70;6.90;;;;;;;;;;5127696;27;24423;-60
2022/01/23 06:11:13;;;;;;;8.23;6.93;;;;;;;;;;5128128;27;24411;-60
2022/01/23 06:13:38;;;;;;;8.27;7.47;;;;;;;;;;5127378;27;24423;-60
2022/01/23 06:16:03;;;;;;;7.83;7.03;;;;;;;;;;5128489;27;24464;-60
2022/01/23 06:18:28;;;;;;;9.57;7.50;;;;;;;;;;5128423;27;24509;-60
2022/01/23 06:20:53;;;;;;;7.50;6.80;;;;;;;;;;5127870;27;24495;-60
2022/01/23 06:23:19;;;;;;;7.70;6.90;;;;;;;;;;5127638;27;25051;-61
2022/01/23 06:25:45;;;;;;;7.60;6.80;;;;;;;;;;5127360;27;24528;-60
2022/01/23 06:28:12;;;;;;;8.25;7.30;;;;;;;;;;5127966;27;24474;-60
2022/01/23 06:30:38;;;;;;;7.68;6.88;;;;;;;;;;5127412;27;24421;-60
2022/01/23 06:33:04;;;;;;;8.00;7.00;;;;;;;;;;5127799;27;24500;-61
2022/01/23 06:35:29;;;;;;;7.32;6.40;;;;;;;;;;5126767;27;24491;-61
2022/01/23 06:37:54;;;;;;;7.67;6.87;;;;;;;;;;5122834;27;24478;-61
2022/01/23 06:40:20;;;;;;;8.00;7.20;;;;;;;;;;5124315;27;24470;-61
2022/01/23 06:42:45;;;;;;;9.37;7.40;;;;;;;;;;5124955;27;24416;-58
2022/01/23 06:45:11;;;;;;;8.40;7.00;;;;;;;;;;5123170;27;25018;-59
2022/01/23 06:47:36;;;;;;;7.93;7.18;;;;;;;;;;5118774;27;24411;-59
2022/01/23 06:50:02;;;;;;;7.80;7.00;;;;;;;;;;5120960;27;24428;-60
2022/01/23 06:52:27;;;;;;;7.40;6.70;;;;;;;;;;5115026;27;24478;-60
2022/01/23 06:54:53;;;;;;;8.80;7.90;;;;;;;;;;5120565;27;24433;-59
2022/01/23 06:57:18;;;;;;;8.32;7.47;;;;;;;;;;5124915;27;24420;-59
2022/01/23 06:59:43;;;;;;;7.60;6.77;;;;;;;;;;5123334;27;24889;-60
2022/01/23 07:02:08;;;;;;;8.93;7.93;;;;;;;;;;5121709;27;24465;-59
2022/01/23 07:04:33;;;;;;;7.97;7.17;;;;;;;;;;5122262;27;24425;-60
2022/01/23 07:06:59;;;;;;;8.10;7.20;;;;;;;;;;5124601;27;24779;-60
2022/01/23 07:09:24;;;;;;;7.97;7.17;;;;;;;;;;5121660;27;24435;-60
2022/01/23 07:11:49;;;;;;;8.17;7.20;;;;;;;;;;5122525;27;25151;-61
2022/01/23 07:14:14;;;;;;;8.73;7.83;;;;;;;;;;5118031;27;25018;-61
2022/01/23 07:16:39;;;;;;;7.93;7.13;;;;;;;;;;5126804;27;24470;-61
2022/01/23 07:19:04;;;;;;;7.85;7.00;;;;;;;;;;5125760;27;24524;-61
2022/01/23 07:21:30;;;;;;;8.40;7.33;;;;;;;;;;5125891;27;24771;-58
2022/01/23 07:23:55;;;;;;;7.50;6.70;;;;;;;;;;5126881;27;24457;-60
2022/01/23 07:26:22;;;;;;;9.20;7.60;;;;;;;;;;5122409;27;24787;-60
2022/01/23 07:28:48;;;;;;;8.52;7.47;;;;;;;;;;5124401;27;24416;-60
2022/01/23 07:31:31;;;;;;;7.90;7.10;;;;;;;;;;5124091;27;24424;-59
2022/01/23 07:33:57;;;;;;;7.90;7.10;;;;;;;;;;5120468;27;24451;-61
2022/01/23 07:36:22;;;;;;;7.90;7.10;;;;;;;;;;5126671;27;24417;-60
2022/01/23 07:38:47;;;;;;;8.85;7.95;;;;;;;;;;5126704;27;24517;-60
2022/01/23 07:41:12;;;;;;;7.05;6.35;;;;;;;;;;5122272;27;24443;-60
2022/01/23 07:43:37;;;;;;;8.37;7.00;;;;;;;;;;5127129;27;24409;-60
2022/01/23 07:46:02;;;;;;;8.95;7.50;;;;;;;;;;5125833;27;24867;-60
2022/01/23 07:48:28;;;;;;;7.90;7.10;;;;;;;;;;5124007;27;24431;-61
2022/01/23 07:50:53;;;;;;;8.20;7.40;;;;;;;;;;5108928;27;24591;-61
2022/01/23 07:53:18;;;;;;;8.13;7.30;;;;;;;;;;5125423;27;25282;-61
2022/01/23 07:55:43;;;;;;;8.35;7.55;;;;;;;;;;5125149;27;24413;-60
2022/01/23 07:58:13;;;;;;;9.13;8.10;;;;;;;;;;5123904;27;24601;-60
2022/01/23 08:00:38;;;;;;;8.87;7.40;;;;;;;;;;5123938;27;24474;-61
2022/01/23 08:03:03;;;;;;;9.73;8.73;;;;;;;;;;5123065;27;24818;-60
2022/01/23 08:05:29;;;;;;;8.77;7.87;;;;;;;;;;5119564;27;24431;-62
2022/01/23 08:07:54;;;;;;;9.47;8.57;;;;;;;;;;5125089;28;24408;-61
2022/01/23 08:10:19;;;;;;;9.73;8.73;;;;;;;;;;5123974;28;25375;-60
2022/01/23 08:12:44;;;;;;;10.50;9.40;;;;;;;;;;5124405;28;24449;-59
2022/01/23 08:15:09;;;;;;;8.57;7.68;;;;;;;;;;5120682;28;24554;-59
2022/01/23 08:17:34;;;;;;;9.80;8.73;;;;;;;;;;5126441;28;24456;-59
2022/01/23 08:20:00;;;;;;;9.50;8.50;;;;;;;;;;5126317;28;24450;-59
2022/01/23 08:22:27;;;;;;;9.50;8.52;;;;;;;;;;5123585;28;24504;-60
2022/01/23 08:24:54;;;;;;;10.07;9.07;;;;;;;;;;5124814;28;24431;-60
2022/01/23 08:27:19;;;;;;;10.97;9.73;;;;;;;;;;5126160;28;24420;-60
2022/01/23 08:29:44;;;;;;;9.90;8.90;;;;;;;;;;5121947;28;24421;-60
2022/01/23 08:32:10;;;;;;;11.00;9.90;;;;;;;;;;5121408;28;24413;-61
2022/01/23 08:34:36;;;;;;;11.50;10.30;;;;;;;;;;5126054;28;24494;-61
2022/01/23 08:37:02;;;;;;;11.60;10.40;;;;;;;;;;5125935;27;24939;-61
2022/01/23 08:39:28;;;;;;;11.77;10.52;;;;;;;;;;5128197;27;24478;-59
2022/01/23 08:41:53;;;;;;;13.18;10.57;;;;;;;;;;5125057;27;24869;-60
2022/01/23 08:44:22;;;;;;;12.23;10.50;;;;;;;;;;5129301;27;24413;-59
2022/01/23 08:46:48;;;;;;;15.00;13.40;;;;;;;;;;5126641;27;25086;-59
2022/01/23 08:49:13;;;;;;;12.40;11.10;;;;;;;;;;5129907;27;24405;-60
2022/01/23 08:51:39;;;;;;;12.00;10.70;;;;;;;;;;5129084;27;24448;-60
2022/01/23 08:54:04;;;;;;;11.10;10.00;;;;;;;;;;5130087;27;24980;-61
2022/01/23 08:56:32;;;;;;;10.80;9.80;;;;;;;;;;5130889;27;24542;-60
2022/01/23 08:58:57;;;;;;;10.63;9.52;;;;;;;;;;5128728;27;24417;-60
2022/01/23 09:01:23;;;;;;;10.60;9.50;;;;;;;;;;5129899;27;24413;-60
2022/01/23 09:03:48;;;;;;;10.48;9.38;;;;;;;;;;5130846;27;24933;-60
2022/01/23 09:06:13;;;;;;;10.03;9.03;;;;;;;;;;5130247;27;24436;-61
2022/01/23 09:08:40;;;;;;;9.70;8.50;;;;;;;;;;5130368;27;24412;-60
2022/01/23 09:11:13;;;;;;;9.48;8.48;;;;;;;;;;5130012;27;24470;-60
2022/01/23 09:16:09;;;;;;;9.70;8.77;;;;;;;;;;5130102;27;24401;-60
2022/01/23 09:18:34;;;;;;;9.30;8.40;;;;;;;;;;5129999;27;24501;-61
2022/01/23 09:21:00;;;;;;;9.40;8.50;;;;;;;;;;5129936;27;24971;-60
2022/01/23 09:23:25;;;;;;;10.70;9.07;;;;;;;;;;5130172;27;24399;-59
2022/01/23 09:25:51;;;;;;;9.90;8.90;;;;;;;;;;5129583;27;24441;-61
2022/01/23 09:28:18;;;;;;;8.17;7.37;;;;;;;;;;5130008;27;24926;-61
2022/01/23 09:30:48;;;;;;;7.70;7.00;;;;;;;;;;5129662;27;24786;-59
2022/01/23 09:33:13;;;;;;;8.32;7.43;;;;;;;;;;5129737;27;24739;-61
2022/01/23 09:35:39;;;;;;;11.07;9.98;;;;;;;;;;5129795;27;24454;-60
2022/01/23 09:38:04;;;;;;;7.83;6.90;;;;;;;;;;5129332;27;24453;-60
2022/01/23 09:40:29;;;;;;;7.33;6.63;;;;;;;;;;5129511;27;24451;-60
2022/01/23 09:43:20;;;;;;;7.60;6.90;;;;;;;;;;5129511;27;24946;-60
2022/01/23 09:45:47;;;;;;;7.60;6.90;;;;;;;;;;5125500;27;24439;-61
2022/01/23 09:48:12;;;;;;;8.17;7.37;;;;;;;;;;5129491;27;24435;-61
2022/01/23 09:50:37;;;;;;;7.40;6.70;;;;;;;;;;5117823;27;24842;-61
2022/01/23 09:53:03;;;;;;;8.97;8.10;;;;;;;;;;5110942;27;24488;-61
2022/01/23 09:55:33;;;;;;;7.70;7.00;;;;;;;;;;5129003;27;24421;-58
2022/01/23 09:57:59;;;;;;;9.00;8.20;;;;;;;;;;5128725;27;25134;-62
2022/01/23 10:00:26;;;;;;;8.10;7.30;;;;;;;;;;5129351;27;24417;-59
2022/01/23 10:02:51;;;;;;;8.02;6.97;;;;;;;;;;5128946;27;24419;-61
2022/01/23 10:05:17;;;;;;;7.93;7.13;;;;;;;;;;5128829;27;24421;-61
2022/01/23 10:07:43;;;;;;;7.70;7.00;;;;;;;;;;5128734;27;24410;-61
2022/01/23 10:10:16;;;;;;;8.20;7.17;;;;;;;;;;5128337;27;24413;-60
2022/01/23 10:12:42;;;;;;;7.50;6.80;;;;;;;;;;5129257;27;24400;-60
2022/01/23 10:15:08;;;;;;;8.80;7.90;;;;;;;;;;5118970;27;24471;-60
2022/01/23 10:17:34;;;;;;;7.30;6.60;;;;;;;;;;5107943;28;24755;-60
2022/01/23 10:20:00;;;;;;;7.20;6.53;;;;;;;;;;5108225;28;24389;-60
2022/01/23 10:22:25;;;;;;;7.50;6.80;;;;;;;;;;5126158;27;24504;-60
2022/01/23 10:24:50;;;;;;;7.60;6.20;;;;;;;;;;5128646;27;24576;-62
2022/01/23 10:27:17;;;;;;;7.50;6.70;;;;;;;;;;5128531;27;24642;-61
2022/01/23 10:29:46;;;;;;;7.68;6.45;;;;;;;;;;5128493;27;24375;-60
2022/01/23 10:32:18;;;;;;;6.53;5.82;;;;;;;;;;5128291;27;24443;-60
2022/01/23 10:34:48;;;;;;;7.35;6.65;;;;;;;;;;5128666;27;24398;-61
2022/01/23 10:37:32;;;;;;;6.80;6.00;;;;;;;;;;5127410;27;24747;-59
2022/01/23 10:39:58;;;;;;;7.10;6.40;;;;;;;;;;5128078;27;24420;-61
2022/01/23 10:48:13;;;;;;;7.10;6.30;;;;;;;;;;5128300;27;24434;-61
2022/01/23 10:50:39;;;;;;;6.60;6.00;;;;;;;;;;5124554;27;24401;-59
2022/01/23 10:53:04;;;;;;;7.37;6.67;;;;;;;;;;5127754;27;24428;-60
2022/01/23 10:55:30;;;;;;;6.35;5.85;;;;;;;;;;5121055;27;24425;-60
2022/01/23 10:57:58;;;;;;;6.80;6.20;;;;;;;;;;5116735;27;24428;-61
2022/01/23 11:00:26;;;;;;;6.25;5.75;;;;;;;;;;5127450;27;24958;-63
2022/01/23 11:02:51;;;;;;;6.32;5.80;;;;;;;;;;5127775;27;24803;-61
2022/01/23 11:05:18;;;;;;;6.20;5.70;;;;;;;;;;5127399;27;25026;-61
2022/01/23 11:07:44;;;;;;;7.43;6.72;;;;;;;;;;5126597;27;24413;-61
2022/01/23 11:10:11;;;;;;;7.13;6.50;;;;;;;;;;5126579;27;24491;-62
2022/01/23 11:18:01;;;;;;;7.68;6.88;;;;;;;;;;5119541;27;24432;-62
2022/01/23 11:20:32;;;;;;;7.50;6.80;;;;;;;;;;5123252;27;25025;-62
2022/01/23 11:23:01;;;;;;;6.90;6.30;;;;;;;;;;5113309;27;24428;-61
2022/01/23 11:25:26;;;;;;;7.30;6.70;;;;;;;;;;5123458;27;24435;-62
2022/01/23 11:28:01;;;;;;;6.40;5.80;;;;;;;;;;5118724;27;24497;-62
2022/01/23 11:30:34;;;;;;;7.80;6.70;;;;;;;;;;5121702;27;24416;-62
2022/01/23 11:32:59;;;;;;;7.78;7.07;;;;;;;;;;5126473;27;24779;-62
2022/01/23 11:35:27;;;;;;;7.07;6.47;;;;;;;;;;5122163;27;24421;-62
2022/01/23 11:37:53;;;;;;;7.50;6.80;;;;;;;;;;5125773;27;24441;-63
2022/01/23 11:53:59;;;;;;;6.97;6.28;;;;;;;;;;5122367;27;24412;-61
2022/01/23 11:56:24;;;;;;;17.05;10.77;;;;;;;;;;5117652;27;24433;-61
2022/01/23 11:58:51;;;;;;;9.57;7.25;;;;;;;;;;5119625;27;24420;-61
2022/01/23 12:01:17;;;;;;;6.07;5.47;;;;;;;;;;5121669;27;24470;-61
2022/01/23 12:04:01;;;;;;;5.97;5.47;;;;;;;;;;5124902;27;24409;-60
2022/01/23 12:06:26;;;;;;;6.20;5.60;;;;;;;;;;5121778;27;24426;-63
2022/01/23 12:08:51;;;;;;;5.78;5.28;;;;;;;;;;5123261;27;24446;-62
2022/01/23 12:16:27;;;;;;;7.40;6.70;;;;;;;;;;5114148;28;25068;-63
2022/01/23 12:19:12;;;;;;;6.30;5.70;;;;;;;;;;5115023;28;24437;-61
2022/01/23 12:21:38;;;;;;;5.53;5.03;;;;;;;;;;5121569;28;24465;-61
2022/01/23 12:24:04;;;;;;;5.45;4.95;;;;;;;;;;5121921;28;24455;-60
2022/01/23 12:26:29;;;;;;;5.57;5.15;;;;;;;;;;5120635;28;24870;-60
2022/01/23 12:28:54;;;;;;;5.37;4.87;;;;;;;;;;5122591;28;25345;-60
2022/01/23 12:31:26;;;;;;;5.27;4.77;;;;;;;;;;5123121;28;24475;-62
2022/01/23 12:33:52;;;;;;;5.70;5.20;;;;;;;;;;5119618;28;24820;-61
2022/01/23 12:36:20;;;;;;;5.60;5.10;;;;;;;;;;5122727;28;24453;-62
2022/01/23 12:38:53;;;;;;;5.70;5.20;;;;;;;;;;5119574;28;24795;-61
2022/01/23 12:41:24;;;;;;;5.17;4.67;;;;;;;;;;5121487;28;25087;-62
2022/01/23 12:43:50;;;;;;;5.85;4.63;;;;;;;;;;5121616;28;24469;-62
2022/01/23 12:46:22;;;;;;;4.60;4.20;;;;;;;;;;5121428;28;24490;-61
2022/01/23 12:48:49;;;;;;;4.88;4.47;;;;;;;;;;5122205;28;24428;-61
2022/01/23 12:51:17;;;;;;;5.15;4.65;;;;;;;;;;5117929;28;24429;-61
2022/01/23 12:53:45;;;;;;;5.50;4.60;;;;;;;;;;5118948;28;24431;-61
2022/01/23 12:56:14;;;;;;;5.15;4.65;;;;;;;;;;5122340;28;24420;-61
2022/01/23 12:58:41;;;;;;;4.93;4.53;;;;;;;;;;5123021;28;24474;-60
2022/01/23 13:01:08;;;;;;;4.50;4.10;;;;;;;;;;5115378;28;24421;-61
2022/01/23 13:03:33;;;;;;;5.40;4.90;;;;;;;;;;5122643;28;24446;-60
2022/01/23 13:05:58;;;;;;;5.03;4.53;;;;;;;;;;5121434;28;24478;-60
2022/01/23 13:08:28;;;;;;;5.03;4.63;;;;;;;;;;5121195;28;25372;-61
2022/01/23 13:11:19;;;;;;;4.72;4.32;;;;;;;;;;5118783;28;25120;-61
2022/01/23 13:13:51;;;;;;;4.55;4.15;;;;;;;;;;5117670;28;24404;-61
2022/01/23 13:16:25;;;;;;;4.40;4.00;;;;;;;;;;5110226;28;24451;-61
2022/01/23 13:35:09;;;;;;;4.70;4.20;;;;;;;;;;5119080;27;24470;-61
2022/01/23 13:37:36;;;;;;;4.30;3.90;;;;;;;;;;5125245;27;24448;-61
2022/01/23 13:40:07;;;;;;;3.83;3.50;;;;;;;;;;5124543;27;24436;-61
2022/01/23 13:47:53;;;;;;;5.20;4.70;;;;;;;;;;5121170;27;24424;-61
2022/01/23 13:49:16;;;;;;;5.53;5.03;;;;;;;;;;5122268;27;24456;-61
2022/01/23 13:51:55;;;;;;;5.10;4.40;;;;;;;;;;5123509;27;25287;-60
2022/01/23 13:59:58;;;;;;;4.97;4.50;;;;;;;;;;5119619;27;24436;-61
2022/01/23 14:02:25;;;;;;;4.25;3.85;;;;;;;;;;5120033;27;24410;-61
2022/01/23 14:04:53;;;;;;;4.40;4.00;;;;;;;;;;5124200;27;24397;-61
2022/01/23 14:07:20;;;;;;;5.05;4.00;;;;;;;;;;5121866;27;24453;-60
2022/01/23 14:09:46;;;;;;;5.43;4.93;;;;;;;;;;5123916;27;24494;-61
2022/01/23 14:12:12;;;;;;;5.67;5.10;;;;;;;;;;5124110;27;24584;-62
2022/01/23 14:14:47;;;;;;;4.72;4.32;;;;;;;;;;5125103;27;24413;-62
2022/01/23 14:17:14;;;;;;;5.50;4.80;;;;;;;;;;5125387;27;24406;-61
2022/01/23 14:19:39;;;;;;;5.40;4.90;;;;;;;;;;5121351;27;25022;-61
2022/01/23 14:22:04;;;;;;;5.93;5.43;;;;;;;;;;5123813;27;24421;-61
2022/01/23 14:24:31;;;;;;;5.80;5.30;;;;;;;;;;5123945;27;24842;-60
2022/01/23 14:26:56;;;;;;;5.80;5.30;;;;;;;;;;5122250;27;25324;-60
2022/01/23 14:29:22;;;;;;;6.70;6.10;;;;;;;;;;5123701;27;24558;-61
2022/01/23 14:32:02;;;;;;;5.20;4.70;;;;;;;;;;5123728;27;24457;-61
2022/01/23 14:34:27;;;;;;;5.33;4.93;;;;;;;;;;5122031;27;24528;-61
2022/01/23 14:36:56;;;;;;;5.33;4.93;;;;;;;;;;5120610;27;25032;-61
2022/01/23 14:39:22;;;;;;;5.60;5.10;;;;;;;;;;5120528;27;24468;-61
2022/01/23 14:41:48;;;;;;;5.88;5.38;;;;;;;;;;5120220;27;24432;-60
2022/01/23 14:44:17;;;;;;;5.43;5.00;;;;;;;;;;5106867;27;24901;-60
2022/01/23 14:46:45;;;;;;;4.80;4.40;;;;;;;;;;5114117;27;24431;-60
2022/01/23 14:49:11;;;;;;;5.28;4.78;;;;;;;;;;5120742;27;24417;-61
2022/01/23 14:51:37;;;;;;;6.75;6.15;;;;;;;;;;5122920;27;25723;-60
2022/01/23 14:54:03;;;;;;;8.10;7.32;;;;;;;;;;5123743;27;24509;-59
2022/01/23 14:56:30;;;;;;;6.30;5.70;;;;;;;;;;5123957;27;24528;-60
2022/01/23 14:58:55;;;;;;;5.25;4.75;;;;;;;;;;5122987;27;24425;-60
2022/01/23 15:01:20;;;;;;;5.17;4.77;;;;;;;;;;5119539;27;24424;-60
2022/01/23 15:03:53;;;;;;;5.80;5.30;;;;;;;;;;5118817;27;25138;-60
2022/01/23 15:06:18;;;;;;;5.00;4.60;;;;;;;;;;5119752;27;24501;-60
2022/01/23 15:08:45;;;;;;;5.28;4.88;;;;;;;;;;5119582;27;24532;-60
2022/01/23 15:11:10;;;;;;;6.05;5.47;;;;;;;;;;5123050;27;24528;-60
2022/01/23 15:13:36;;;;;;;5.60;5.10;;;;;;;;;;5127828;27;25033;-59
2022/01/23 15:16:01;;;;;;;5.73;5.23;;;;;;;;;;5122667;27;24501;-60
2022/01/23 15:18:27;;;;;;;5.30;4.80;;;;;;;;;;5123041;27;24950;-60
2022/01/23 15:20:52;;;;;;;4.90;4.50;;;;;;;;;;5126804;27;24415;-60
2022/01/23 15:23:17;;;;;;;4.93;4.43;;;;;;;;;;5127416;27;24416;-60
2022/01/23 15:25:42;;;;;;;4.85;4.45;;;;;;;;;;5124070;27;24464;-60
2022/01/23 15:28:08;;;;;;;5.57;5.07;;;;;;;;;;5121881;27;24425;-59
2022/01/23 15:30:36;;;;;;;5.50;5.00;;;;;;;;;;5125131;27;25199;-60
2022/01/23 15:33:01;;;;;;;5.23;4.73;;;;;;;;;;5127044;27;24421;-60
2022/01/23 15:35:27;;;;;;;4.53;4.13;;;;;;;;;;5126777;27;24423;-60
2022/01/23 15:37:52;;;;;;;5.07;4.68;;;;;;;;;;5126785;27;24536;-60
2022/01/23 15:40:21;;;;;;;5.80;5.30;;;;;;;;;;5126735;27;24409;-60
2022/01/23 15:42:49;;;;;;;5.63;5.03;;;;;;;;;;5127175;27;24431;-60
2022/01/23 15:45:14;;;;;;;5.43;4.85;;;;;;;;;;5126644;27;24425;-60
2022/01/23 15:47:40;;;;;;;5.57;5.07;;;;;;;;;;5125934;27;24550;-60
2022/01/23 15:50:06;;;;;;;5.43;4.93;;;;;;;;;;5126550;27;24998;-60
2022/01/23 15:52:31;;;;;;;5.75;5.25;;;;;;;;;;5126514;27;24987;-60
2022/01/23 15:54:56;;;;;;;5.00;4.50;;;;;;;;;;5126768;27;24417;-61
2022/01/23 15:57:21;;;;;;;6.93;5.53;;;;;;;;;;5127060;27;24405;-60
2022/01/23 15:59:47;;;;;;;5.27;4.77;;;;;;;;;;5127059;27;24436;-61
2022/01/23 16:02:13;;;;;;;5.87;5.27;;;;;;;;;;5126615;27;24873;-61
2022/01/23 16:04:38;;;;;;;7.40;5.93;;;;;;;;;;5127164;27;24570;-61
2022/01/23 16:07:04;;;;;;;6.63;5.97;;;;;;;;;;5124865;27;24440;-61
2022/01/23 16:09:29;;;;;;;9.37;7.53;;;;;;;;;;5118329;27;24478;-61
2022/01/23 16:11:54;;;;;;;9.50;7.73;;;;;;;;;;5124343;28;24420;-61
2022/01/23 16:14:20;;;;;;;5.70;5.10;;;;;;;;;;5125222;28;24413;-60
2022/01/23 16:16:45;;;;;;;12.50;10.30;;;;;;;;;;5125198;28;24810;-61
2022/01/23 16:19:10;;;;;;;14.43;11.20;;;;;;;;;;5124381;28;24420;-61
2022/01/23 16:21:36;;;;;;;7.70;6.50;;;;;;;;;;5114544;28;24529;-61
2022/01/23 16:24:01;;;;;;;6.15;5.55;;;;;;;;;;5122307;28;24413;-61
2022/01/23 16:26:27;;;;;;;6.60;5.90;;;;;;;;;;5110725;28;24994;-61
2022/01/23 16:28:52;;;;;;;6.30;5.70;;;;;;;;;;5114252;28;24462;-61
2022/01/23 16:31:17;;;;;;;6.47;5.87;;;;;;;;;;5124060;28;24466;-61
2022/01/23 16:33:42;;;;;;;6.17;5.57;;;;;;;;;;5123939;28;24430;-61
2022/01/23 16:36:10;;;;;;;6.00;5.50;;;;;;;;;;5124077;28;24990;-61
2022/01/23 16:38:36;;;;;;;7.40;6.70;;;;;;;;;;5122595;28;24488;-61
2022/01/23 16:41:02;;;;;;;8.20;7.40;;;;;;;;;;5123343;28;24445;-61
2022/01/23 16:43:29;;;;;;;7.82;7.13;;;;;;;;;;5123096;28;24879;-61
2022/01/23 16:45:55;;;;;;;7.80;7.00;;;;;;;;;;5111387;28;24538;-59
2022/01/23 16:48:21;;;;;;;8.57;7.77;;;;;;;;;;5102829;28;24818;-59
2022/01/23 16:50:46;;;;;;;8.07;7.27;;;;;;;;;;5116282;28;24758;-60
2022/01/23 16:53:11;;;;;;;8.30;7.50;;;;;;;;;;5123659;28;24431;-60
2022/01/23 16:55:36;;;;;;;7.80;7.10;;;;;;;;;;5105583;28;24412;-60
2022/01/23 16:58:02;;;;;;;8.30;7.50;;;;;;;;;;5124442;27;24389;-60
2022/01/23 17:00:28;;;;;;;9.00;8.20;;;;;;;;;;5126296;27;24610;-60
2022/01/23 17:02:53;;;;;;;10.20;9.20;;;;;;;;;;5114666;27;24432;-60
2022/01/23 17:05:18;;;;;;;9.17;8.27;;;;;;;;;;5129546;27;24953;-60
2022/01/23 17:07:44;;;;;;;8.80;7.90;;;;;;;;;;5123692;27;24405;-60
2022/01/23 17:10:09;;;;;;;9.23;8.40;;;;;;;;;;5109676;27;24819;-61
2022/01/23 17:12:34;;;;;;;10.10;9.10;;;;;;;;;;5119695;27;24523;-61
2022/01/23 17:14:59;;;;;;;10.13;9.13;;;;;;;;;;5113115;27;24417;-62
2022/01/23 17:17:25;;;;;;;9.93;8.93;;;;;;;;;;5118887;27;25043;-61
2022/01/23 17:19:50;;;;;;;9.57;8.57;;;;;;;;;;5127300;27;24417;-62
2022/01/23 17:22:15;;;;;;;8.60;7.80;;;;;;;;;;5128958;27;24413;-60
2022/01/23 17:24:40;;;;;;;9.90;8.93;;;;;;;;;;5129429;27;24501;-61
2022/01/23 17:27:06;;;;;;;9.80;8.90;;;;;;;;;;5128394;27;24401;-60
2022/01/23 17:29:32;;;;;;;9.43;8.53;;;;;;;;;;5128720;27;24420;-60
2022/01/23 17:31:57;;;;;;;8.25;7.45;;;;;;;;;;5129463;27;24392;-61
2022/01/23 17:34:22;;;;;;;9.20;8.30;;;;;;;;;;5129005;27;24907;-61
2022/01/23 17:36:48;;;;;;;8.32;7.63;;;;;;;;;;5127175;27;24570;-62
2022/01/23 17:39:13;;;;;;;9.47;8.47;;;;;;;;;;5125385;27;24437;-61
2022/01/23 17:41:40;;;;;;;8.77;7.87;;;;;;;;;;5128507;27;24448;-61
2022/01/23 17:44:05;;;;;;;9.63;8.63;;;;;;;;;;5123182;27;24408;-61
2022/01/23 17:46:33;;;;;;;9.40;8.50;;;;;;;;;;5122997;27;24822;-61
2022/01/23 17:51:27;;;;;;;8.32;7.53;;;;;;;;;;5122434;27;24409;-61
2022/01/23 17:53:53;;;;;;;8.68;7.78;;;;;;;;;;5117623;27;25246;-61